createdAt,value
2019-03-29T00:00:13.948Z,23.13
2019-03-29T00:02:43.897Z,23.33
2019-03-29T00:05:14.658Z,22.03
2019-03-29T00:07:44.731Z,23.20
2019-03-29T00:10:15.494Z,21.37
2019-03-29T00:12:46.583Z,21.10
2019-03-29T00:15:17.431Z,21.00
2019-03-29T00:17:47.415Z,22.57
2019-03-29T00:20:18.163Z,21.97
2019-03-29T00:22:49.008Z,21.63
2019-03-29T00:25:19.876Z,22.80
2019-03-29T00:27:50.746Z,21.53
2019-03-29T00:30:22.122Z,21.40
2019-03-29T00:32:53.075Z,21.40
2019-03-29T00:35:23.939Z,20.63
2019-03-29T00:37:55.813Z,21.23
2019-03-29T00:40:26.783Z,20.72
2019-03-29T00:42:57.619Z,22.33
2019-03-29T00:45:28.470Z,22.53
2019-03-29T00:47:58.338Z,21.27
2019-03-29T00:50:29.151Z,23.03
2019-03-29T00:53:00.116Z,20.27
2019-03-29T00:55:31.088Z,21.95
2019-03-29T00:58:02.011Z,20.43
2019-03-29T01:00:33.668Z,20.57
2019-03-29T01:03:04.027Z,19.83
2019-03-29T01:05:33.878Z,19.47
2019-03-29T01:08:08.274Z,18.60
2019-03-29T01:10:36.388Z,19.27
2019-03-29T01:13:07.685Z,19.53
2019-03-29T01:15:38.563Z,19.37
2019-03-29T01:18:09.414Z,19.53
2019-03-29T01:20:40.332Z,19.80
2019-03-29T01:23:11.216Z,20.13
2019-03-29T01:25:42.054Z,20.23
2019-03-29T01:28:12.265Z,19.93
2019-03-29T01:30:43.099Z,19.00
2019-03-29T01:33:13.038Z,21.03
2019-03-29T01:35:42.887Z,20.80
2019-03-29T01:38:21.577Z,20.33
2019-03-29T01:40:44.238Z,20.80
2019-03-29T01:43:14.041Z,20.67
2019-03-29T01:45:45.915Z,21.07
2019-03-29T01:48:16.106Z,21.50
2019-03-29T01:50:46.862Z,19.80
2019-03-29T01:53:17.754Z,21.47
2019-03-29T01:55:48.899Z,22.27
2019-03-29T01:58:20.151Z,20.83
2019-03-29T02:00:51.003Z,20.70
2019-03-29T02:03:20.958Z,19.90
2019-03-29T02:05:51.651Z,20.90
2019-03-29T02:08:35.163Z,20.47
2019-03-29T02:10:54.987Z,20.37
2019-03-29T02:13:26.095Z,22.23
2019-03-29T02:15:56.299Z,20.63
2019-03-29T02:18:27.079Z,20.37
2019-03-29T02:20:57.941Z,21.27
2019-03-29T02:23:28.796Z,22.60
2019-03-29T02:25:59.656Z,21.20
2019-03-29T02:28:29.611Z,20.23
2019-03-29T02:31:00.677Z,20.00
2019-03-29T02:33:30.603Z,21.43
2019-03-29T02:36:01.370Z,21.80
2019-03-29T02:38:31.326Z,21.97
2019-03-29T02:41:02.100Z,22.17
2019-03-29T02:43:32.064Z,23.60
2019-03-29T02:46:02.829Z,23.60
2019-03-29T02:48:32.867Z,23.40
2019-03-29T02:51:04.792Z,24.50
2019-03-29T02:53:35.215Z,23.33
2019-03-29T02:56:06.092Z,22.20
2019-03-29T02:58:36.020Z,24.15
2019-03-29T03:01:05.895Z,24.77
2019-03-29T03:03:36.693Z,25.47
2019-03-29T03:06:07.560Z,24.93
2019-03-29T03:08:37.491Z,24.93
2019-03-29T03:11:08.255Z,25.10
2019-03-29T03:13:39.082Z,25.63
2019-03-29T03:16:09.951Z,25.23
2019-03-29T03:18:40.788Z,24.73
2019-03-29T03:21:11.623Z,27.03
2019-03-29T03:23:42.503Z,24.77
2019-03-29T03:26:13.365Z,26.30
2019-03-29T03:28:44.225Z,25.03
2019-03-29T03:31:15.076Z,25.27
2019-03-29T03:33:45.943Z,24.57
2019-03-29T03:36:15.883Z,25.97
2019-03-29T03:38:46.664Z,27.87
2019-03-29T03:41:17.504Z,26.52
2019-03-29T03:43:47.484Z,27.67
2019-03-29T03:46:17.333Z,26.07
2019-03-29T03:48:48.211Z,24.23
2019-03-29T03:51:19.138Z,28.17
2019-03-29T03:53:50.395Z,28.23
2019-03-29T03:56:21.559Z,26.47
2019-03-29T03:58:52.710Z,28.97
2019-03-29T04:01:22.562Z,30.57
2019-03-29T04:03:52.411Z,29.73
2019-03-29T04:06:22.269Z,28.50
2019-03-29T04:08:53.027Z,29.70
2019-03-29T04:11:23.923Z,27.87
2019-03-29T04:13:54.779Z,30.27
2019-03-29T04:16:25.630Z,31.13
2019-03-29T04:18:56.526Z,30.00
2019-03-29T04:21:27.369Z,29.90
2019-03-29T04:23:57.309Z,29.97
2019-03-29T04:26:28.078Z,29.30
2019-03-29T04:29:04.709Z,29.10
2019-03-29T04:31:31.402Z,30.13
2019-03-29T04:34:01.340Z,29.77
2019-03-29T04:36:32.095Z,29.65
2019-03-29T04:39:04.756Z,29.27
2019-03-29T04:41:35.618Z,28.93
2019-03-29T04:44:06.605Z,30.80
2019-03-29T04:46:36.613Z,27.93
2019-03-29T04:49:07.375Z,26.13
2019-03-29T04:51:38.228Z,27.82
2019-03-29T04:54:09.103Z,28.60
2019-03-29T04:56:39.954Z,30.70
2019-03-29T04:59:10.819Z,29.00
2019-03-29T05:01:41.687Z,29.17
2019-03-29T05:04:12.566Z,30.77
2019-03-29T05:06:43.391Z,26.60
2019-03-29T05:09:14.269Z,27.57
2019-03-29T05:11:45.115Z,28.23
2019-03-29T05:14:16.054Z,26.43
2019-03-29T05:16:45.903Z,27.07
2019-03-29T05:19:15.743Z,28.07
2019-03-29T05:21:46.539Z,27.83
2019-03-29T05:24:16.466Z,25.87
2019-03-29T05:26:47.251Z,28.10
2019-03-29T05:29:17.289Z,27.30
2019-03-29T05:31:48.075Z,26.97
2019-03-29T05:34:18.001Z,26.87
2019-03-29T05:36:48.798Z,27.47
2019-03-29T05:39:19.650Z,26.53
2019-03-29T05:41:50.499Z,26.07
2019-03-29T05:44:20.455Z,27.53
2019-03-29T05:46:51.253Z,28.53
2019-03-29T05:49:22.114Z,29.50
2019-03-29T05:51:52.937Z,29.25
2019-03-29T05:54:23.815Z,29.30
2019-03-29T05:56:54.691Z,28.70
2019-03-29T05:59:25.530Z,28.50
2019-03-29T06:01:56.375Z,28.47
2019-03-29T06:04:26.319Z,30.07
2019-03-29T06:06:56.237Z,31.40
2019-03-29T06:09:26.996Z,36.17
2019-03-29T06:11:57.869Z,34.57
2019-03-29T06:14:28.711Z,35.73
2019-03-29T06:16:59.606Z,36.13
2019-03-29T06:19:30.499Z,37.80
2019-03-29T06:22:01.375Z,42.10
2019-03-29T06:24:32.219Z,41.02
2019-03-29T06:27:03.128Z,39.23
2019-03-29T06:29:33.977Z,39.27
2019-03-29T06:32:04.862Z,44.43
2019-03-29T06:34:35.719Z,42.80
2019-03-29T06:37:07.607Z,42.03
2019-03-29T06:39:38.047Z,39.50
2019-03-29T06:42:08.802Z,41.97
2019-03-29T06:44:38.752Z,43.40
2019-03-29T06:47:09.534Z,42.43
2019-03-29T06:49:40.392Z,38.00
2019-03-29T06:52:11.247Z,37.63
2019-03-29T06:54:42.178Z,36.47
2019-03-29T06:57:13.100Z,36.57
2019-03-29T06:59:44.080Z,33.37
2019-03-29T07:02:14.027Z,33.03
2019-03-29T07:04:44.884Z,31.23
2019-03-29T07:07:15.768Z,31.40
2019-03-29T07:09:46.694Z,31.67
2019-03-29T07:12:16.667Z,29.30
2019-03-29T07:14:46.555Z,29.90
2019-03-29T07:17:16.402Z,28.07
2019-03-29T07:19:47.177Z,26.67
2019-03-29T07:22:17.110Z,25.13
2019-03-29T07:24:47.924Z,24.83
2019-03-29T07:27:18.786Z,25.77
2019-03-29T07:29:49.490Z,24.80
2019-03-29T07:32:20.343Z,25.33
2019-03-29T07:34:51.206Z,23.97
2019-03-29T07:37:21.168Z,23.13
2019-03-29T07:39:53.823Z,22.60
2019-03-29T07:42:23.488Z,23.93
2019-03-29T07:44:54.279Z,22.87
2019-03-29T07:47:25.167Z,23.33
2019-03-29T07:49:56.006Z,22.20
2019-03-29T07:52:26.872Z,22.93
2019-03-29T07:54:56.806Z,21.87
2019-03-29T07:57:27.595Z,22.10
2019-03-29T07:59:58.430Z,22.37
2019-03-29T08:02:29.023Z,23.20
2019-03-29T08:05:00.273Z,24.13
2019-03-29T08:07:31.585Z,24.23
2019-03-29T08:10:04.016Z,24.60
2019-03-29T08:12:34.348Z,23.70
2019-03-29T08:15:09.284Z,24.20
2019-03-29T08:17:38.408Z,23.83
2019-03-29T08:20:37.182Z,23.83
2019-03-29T08:22:39.822Z,23.87
2019-03-29T08:25:10.796Z,23.87
2019-03-29T08:27:40.727Z,25.33
2019-03-29T08:30:11.705Z,24.37
2019-03-29T08:32:42.692Z,25.17
2019-03-29T08:35:13.564Z,25.03
2019-03-29T08:37:44.947Z,24.13
2019-03-29T08:40:14.940Z,24.63
2019-03-29T08:42:45.945Z,25.73
2019-03-29T08:45:16.808Z,25.70
2019-03-29T08:47:46.771Z,27.07
2019-03-29T08:50:17.522Z,28.60
2019-03-29T08:52:47.523Z,27.30
2019-03-29T08:55:18.116Z,26.77
2019-03-29T08:57:48.927Z,28.13
2019-03-29T09:00:28.714Z,29.27
2019-03-29T09:02:58.580Z,28.20
2019-03-29T09:05:29.363Z,29.33
2019-03-29T09:08:00.761Z,27.90
2019-03-29T09:10:30.812Z,28.40
2019-03-29T09:13:04.076Z,30.90
2019-03-29T09:15:33.132Z,30.53
2019-03-29T09:18:04.034Z,28.77
2019-03-29T09:20:34.636Z,29.87
2019-03-29T09:23:05.813Z,29.67
2019-03-29T09:25:40.171Z,30.12
2019-03-29T09:28:09.179Z,30.23
2019-03-29T09:30:39.119Z,28.57
2019-03-29T09:33:09.979Z,28.90
2019-03-29T09:35:42.574Z,29.17
2019-03-29T09:38:11.399Z,29.37
2019-03-29T09:40:41.372Z,30.30
2019-03-29T09:43:11.260Z,30.70
2019-03-29T09:45:41.402Z,29.93
2019-03-29T09:48:11.283Z,30.53
2019-03-29T09:50:41.154Z,31.93
2019-03-29T09:53:11.981Z,31.90
2019-03-29T09:55:45.360Z,31.83
2019-03-29T09:58:16.387Z,31.17
2019-03-29T10:00:45.838Z,30.23
2019-03-29T10:03:16.732Z,31.33
2019-03-29T10:05:47.568Z,29.77
2019-03-29T10:08:17.506Z,28.67
2019-03-29T10:10:48.300Z,29.90
2019-03-29T10:13:19.183Z,30.90
2019-03-29T10:15:51.461Z,31.97
2019-03-29T10:18:22.472Z,32.40
2019-03-29T10:20:53.382Z,31.40
2019-03-29T10:23:24.260Z,30.43
2019-03-29T10:25:58.519Z,30.83
2019-03-29T10:28:27.793Z,31.87
2019-03-29T10:30:58.658Z,32.97
2019-03-29T10:33:29.535Z,33.08
2019-03-29T10:36:00.470Z,33.00
2019-03-29T10:38:30.441Z,31.57
2019-03-29T10:41:00.339Z,32.27
2019-03-29T10:43:30.251Z,32.60
2019-03-29T10:46:01.055Z,33.63
2019-03-29T10:48:31.060Z,34.57
2019-03-29T10:51:01.864Z,33.13
2019-03-29T10:53:31.803Z,33.10
2019-03-29T10:56:01.686Z,32.80
2019-03-29T10:58:31.527Z,33.17
2019-03-29T11:01:02.330Z,33.87
2019-03-29T11:03:32.263Z,34.07
2019-03-29T11:06:03.041Z,34.13
2019-03-29T11:08:32.995Z,33.98
2019-03-29T11:11:04.111Z,34.93
2019-03-29T11:13:35.015Z,36.00
2019-03-29T11:16:06.182Z,33.20
2019-03-29T11:18:37.116Z,34.63
2019-03-29T11:21:07.064Z,34.03
2019-03-29T11:23:38.255Z,31.97
2019-03-29T11:26:09.207Z,33.50
2019-03-29T11:28:40.096Z,31.77
2019-03-29T11:31:10.059Z,35.17
2019-03-29T11:33:40.795Z,31.87
2019-03-29T11:36:10.775Z,31.87
2019-03-29T11:38:40.666Z,32.43
2019-03-29T11:41:10.552Z,30.07
2019-03-29T11:43:41.344Z,30.77
2019-03-29T11:46:11.299Z,30.90
2019-03-29T11:48:42.159Z,32.57
2019-03-29T11:51:19.242Z,32.80
2019-03-29T11:53:43.647Z,32.73
2019-03-29T11:56:14.484Z,32.33
2019-03-29T11:58:44.463Z,32.27
2019-03-29T12:01:15.365Z,33.10
2019-03-29T12:03:46.255Z,33.40
2019-03-29T12:06:16.195Z,33.23
2019-03-29T12:08:47.052Z,33.40
2019-03-29T12:11:16.992Z,33.17
2019-03-29T12:13:46.869Z,35.70
2019-03-29T12:16:16.707Z,33.13
2019-03-29T12:18:47.490Z,32.73
2019-03-29T12:21:18.343Z,32.13
2019-03-29T12:23:48.302Z,34.33
2019-03-29T12:26:18.074Z,32.27
2019-03-29T12:28:48.893Z,33.03
2019-03-29T12:31:19.742Z,33.33
2019-03-29T12:33:49.663Z,31.30
2019-03-29T12:36:20.252Z,33.67
2019-03-29T12:38:50.170Z,33.10
2019-03-29T12:41:20.040Z,30.97
2019-03-29T12:43:55.845Z,31.93
2019-03-29T12:46:22.404Z,29.80
2019-03-29T12:48:53.303Z,30.50
2019-03-29T12:51:23.250Z,29.30
2019-03-29T12:53:54.060Z,27.37
2019-03-29T12:56:24.974Z,28.93
2019-03-29T12:58:55.971Z,29.83
2019-03-29T13:01:38.438Z,26.55
2019-03-29T13:03:58.435Z,25.27
2019-03-29T13:06:29.241Z,28.90
2019-03-29T13:08:59.233Z,27.67
2019-03-29T13:11:29.171Z,26.90
2019-03-29T13:14:10.269Z,27.50
2019-03-29T13:16:31.587Z,26.27
2019-03-29T13:19:02.395Z,28.40
2019-03-29T13:21:32.320Z,28.47
2019-03-29T13:24:03.127Z,28.50
2019-03-29T13:26:33.091Z,24.50
2019-03-29T13:29:03.257Z,28.67
2019-03-29T13:31:33.123Z,27.80
2019-03-29T13:34:03.988Z,28.33
2019-03-29T13:36:34.911Z,28.13
2019-03-29T13:39:07.912Z,27.93
2019-03-29T13:41:37.891Z,28.80
2019-03-29T13:44:08.718Z,28.23
2019-03-29T13:46:39.621Z,27.53
2019-03-29T13:49:10.620Z,27.37
2019-03-29T13:51:41.474Z,25.57
2019-03-29T13:54:11.507Z,25.03
2019-03-29T13:56:42.439Z,25.07
2019-03-29T13:59:12.382Z,25.90
2019-03-29T14:01:43.167Z,24.40
2019-03-29T14:04:13.129Z,25.90
2019-03-29T14:06:44.004Z,24.90
2019-03-29T14:09:14.915Z,24.97
2019-03-29T14:11:45.857Z,23.67
2019-03-29T14:14:16.164Z,23.87
2019-03-29T14:16:46.141Z,25.20
2019-03-29T14:19:16.068Z,22.97
2019-03-29T14:21:46.069Z,23.07
2019-03-29T14:24:17.541Z,23.23
2019-03-29T14:26:48.467Z,22.17
2019-03-29T14:29:19.462Z,25.13
2019-03-29T14:31:53.948Z,21.67
2019-03-29T14:34:24.500Z,21.83
2019-03-29T14:36:54.531Z,22.80
2019-03-29T14:39:24.439Z,23.40
2019-03-29T14:41:54.814Z,22.23
2019-03-29T14:44:25.649Z,25.03
2019-03-29T14:46:56.800Z,23.77
2019-03-29T14:49:27.702Z,22.53
2019-03-29T14:51:57.729Z,21.33
2019-03-29T14:54:28.547Z,18.80
2019-03-29T14:56:59.438Z,21.00
2019-03-29T14:59:30.234Z,22.00
2019-03-29T15:02:01.432Z,20.10
2019-03-29T15:04:31.426Z,21.27
2019-03-29T15:07:02.667Z,18.10
2019-03-29T15:09:32.613Z,18.53
2019-03-29T15:12:02.522Z,21.63
2019-03-29T15:14:32.358Z,18.57
2019-03-29T15:17:02.366Z,15.97
2019-03-29T15:19:33.199Z,19.87
2019-03-29T15:22:03.179Z,18.97
2019-03-29T15:24:33.033Z,15.23
2019-03-29T15:27:02.838Z,18.30
2019-03-29T15:29:33.659Z,15.10
2019-03-29T15:32:03.612Z,16.77
2019-03-29T15:34:33.501Z,17.17
2019-03-29T15:37:04.316Z,16.37
2019-03-29T15:39:34.274Z,14.73
2019-03-29T15:42:04.137Z,16.77
2019-03-29T15:44:34.040Z,15.83
2019-03-29T15:47:04.846Z,14.73
2019-03-29T15:49:34.842Z,15.60
2019-03-29T15:52:05.653Z,17.70
2019-03-29T15:54:35.655Z,16.90
2019-03-29T15:57:06.499Z,15.97
2019-03-29T15:59:38.404Z,16.07
2019-03-29T16:02:08.409Z,15.33
2019-03-29T16:04:39.246Z,15.63
2019-03-29T16:07:10.215Z,14.43
2019-03-29T16:09:41.135Z,14.53
2019-03-29T16:12:12.159Z,13.93
2019-03-29T16:14:43.068Z,14.80
2019-03-29T16:17:13.045Z,14.80
2019-03-29T16:19:43.842Z,16.77
2019-03-29T16:22:15.200Z,13.27
2019-03-29T16:24:46.106Z,13.60
2019-03-29T16:27:17.002Z,14.37
2019-03-29T16:29:47.968Z,12.67
2019-03-29T16:32:18.883Z,12.47
2019-03-29T16:34:50.751Z,12.90
2019-03-29T16:37:21.877Z,12.70
2019-03-29T16:39:52.930Z,12.93
2019-03-29T16:42:22.914Z,12.70
2019-03-29T16:44:54.002Z,12.03
2019-03-29T16:47:23.983Z,11.90
2019-03-29T16:49:56.827Z,12.00
2019-03-29T16:52:28.039Z,11.07
2019-03-29T16:55:11.917Z,12.03
2019-03-29T16:57:30.503Z,11.40
2019-03-29T17:00:01.300Z,11.27
2019-03-29T17:02:32.401Z,12.13
2019-03-29T17:05:03.296Z,13.03
2019-03-29T17:07:34.471Z,13.17
2019-03-29T17:10:04.938Z,14.23
2019-03-29T17:12:34.811Z,14.03
2019-03-29T17:15:05.021Z,14.57
2019-03-29T17:17:35.186Z,14.97
2019-03-29T17:20:05.776Z,17.47
2019-03-29T17:22:36.666Z,18.60
2019-03-29T17:25:07.756Z,19.03
2019-03-29T17:27:38.739Z,20.03
2019-03-29T17:30:09.542Z,21.77
2019-03-29T17:32:41.328Z,24.90
2019-03-29T17:35:11.272Z,25.07
2019-03-29T17:37:42.098Z,26.13
2019-03-29T17:40:12.288Z,27.13
2019-03-29T17:42:42.168Z,28.07
2019-03-29T17:45:12.063Z,30.10
2019-03-29T17:47:42.891Z,29.60
2019-03-29T17:50:12.910Z,29.13
2019-03-29T17:52:42.780Z,30.03
2019-03-29T17:55:13.551Z,30.90
2019-03-29T17:57:43.507Z,30.20
2019-03-29T18:00:17.909Z,29.00
2019-03-29T18:02:49.723Z,29.00
2019-03-29T18:05:21.948Z,29.47
2019-03-29T18:07:52.205Z,30.17
2019-03-29T18:10:23.002Z,27.33
2019-03-29T18:12:52.956Z,27.43
2019-03-29T18:15:23.943Z,26.63
2019-03-29T18:17:54.019Z,27.97
2019-03-29T18:20:23.929Z,26.50
2019-03-29T18:22:53.914Z,26.23
2019-03-29T18:25:24.850Z,27.40
2019-03-29T18:27:55.191Z,27.33
2019-03-29T18:30:39.407Z,26.27
2019-03-29T18:33:09.345Z,26.57
2019-03-29T18:35:40.176Z,27.03
2019-03-29T18:38:12.386Z,27.77
2019-03-29T18:40:43.200Z,26.70
2019-03-29T18:43:13.143Z,28.60
2019-03-29T18:45:44.058Z,28.67
2019-03-29T18:48:14.343Z,30.23
2019-03-29T18:50:45.237Z,34.80
2019-03-29T18:53:17.439Z,35.83
2019-03-29T18:55:47.347Z,32.60
2019-03-29T18:58:17.231Z,35.10
2019-03-29T19:00:48.071Z,34.77
2019-03-29T19:03:18.989Z,33.90
2019-03-29T19:05:49.943Z,42.58
2019-03-29T19:08:20.819Z,38.57
2019-03-29T19:10:51.780Z,41.37
2019-03-29T19:13:22.679Z,40.93
2019-03-29T19:15:53.580Z,40.07
2019-03-29T19:18:23.515Z,41.53
2019-03-29T19:20:54.385Z,40.93
2019-03-29T19:23:25.256Z,39.60
2019-03-29T19:25:58.066Z,38.43
2019-03-29T19:28:28.071Z,38.03
2019-03-29T19:30:58.878Z,37.97
2019-03-29T19:33:29.819Z,35.63
2019-03-29T19:36:00.747Z,36.80
2019-03-29T19:38:30.713Z,37.13
2019-03-29T19:41:01.574Z,37.33
2019-03-29T19:43:32.499Z,40.50
2019-03-29T19:46:03.392Z,36.47
2019-03-29T19:48:34.303Z,36.77
2019-03-29T19:51:06.214Z,38.40
2019-03-29T19:53:37.340Z,37.13
2019-03-29T19:56:07.330Z,41.57
2019-03-29T19:58:38.130Z,38.63
2019-03-29T20:01:08.066Z,35.73
2019-03-29T20:03:37.975Z,34.63
2019-03-29T20:06:07.905Z,35.23
2019-03-29T20:08:37.854Z,37.33
2019-03-29T20:11:07.662Z,36.80
2019-03-29T20:13:38.504Z,34.07
2019-03-29T20:16:09.420Z,33.97
2019-03-29T20:18:40.400Z,34.43
2019-03-29T20:21:11.522Z,33.57
2019-03-29T20:23:42.351Z,37.50
2019-03-29T20:26:13.619Z,35.40
2019-03-29T20:28:44.542Z,37.23
2019-03-29T20:31:14.471Z,35.37
2019-03-29T20:33:45.291Z,36.17
2019-03-29T20:36:22.825Z,33.83
2019-03-29T20:38:48.814Z,37.33
2019-03-29T20:41:18.797Z,35.75
2019-03-29T20:43:49.595Z,35.73
2019-03-29T20:46:21.622Z,39.03
2019-03-29T20:48:52.576Z,43.73
2019-03-29T20:51:22.604Z,36.33
2019-03-29T20:53:53.451Z,34.77
2019-03-29T20:56:24.470Z,35.00
2019-03-29T20:58:55.358Z,34.57
2019-03-29T21:01:26.344Z,35.23
2019-03-29T21:03:56.284Z,36.47
2019-03-29T21:06:27.223Z,37.03
2019-03-29T21:08:57.219Z,33.10
2019-03-29T21:11:27.182Z,35.07
2019-03-29T21:13:58.193Z,32.17
2019-03-29T21:16:28.203Z,33.85
2019-03-29T21:18:59.089Z,33.90
2019-03-29T21:21:30.274Z,32.38
2019-03-29T21:24:02.400Z,32.77
2019-03-29T21:26:34.804Z,31.33
2019-03-29T21:29:05.719Z,31.70
2019-03-29T21:31:36.966Z,33.93
2019-03-29T21:34:07.935Z,36.87
2019-03-29T21:36:41.096Z,30.90
2019-03-29T21:39:12.853Z,35.83
2019-03-29T21:41:44.146Z,75.00
2019-03-29T21:44:15.207Z,47.37
2019-03-29T21:46:48.329Z,52.97
2019-03-29T21:49:19.240Z,48.43
2019-03-29T21:51:49.292Z,42.30
2019-03-29T21:54:20.854Z,37.07
2019-03-29T21:56:51.817Z,35.90
2019-03-29T21:59:25.146Z,34.63
2019-03-29T22:01:55.278Z,33.60
2019-03-29T22:04:26.215Z,34.73
2019-03-29T22:06:57.090Z,33.23
2019-03-29T22:09:36.734Z,34.95
2019-03-29T22:11:59.548Z,34.00
2019-03-29T22:14:30.372Z,33.77
2019-03-29T22:17:01.294Z,35.87
2019-03-29T22:19:35.271Z,32.67
2019-03-29T22:22:05.211Z,36.17
2019-03-29T22:24:36.075Z,36.37
2019-03-29T22:27:06.947Z,39.00
2019-03-29T22:29:37.839Z,35.97
2019-03-29T22:32:07.834Z,36.93
2019-03-29T22:34:38.615Z,36.10
2019-03-29T22:37:08.606Z,37.47
2019-03-29T22:39:39.364Z,38.47
2019-03-29T22:42:10.275Z,38.40
2019-03-29T22:44:41.201Z,37.00
2019-03-29T22:47:12.140Z,37.80
2019-03-29T22:49:43.099Z,39.87
2019-03-29T22:52:13.966Z,40.13
2019-03-29T22:54:45.943Z,40.37
2019-03-29T22:57:16.843Z,39.83
2019-03-29T22:59:47.759Z,42.47
2019-03-29T23:02:18.675Z,40.60
2019-03-29T23:04:49.563Z,42.33
2019-03-29T23:07:21.207Z,42.10
2019-03-29T23:09:52.086Z,39.90
2019-03-29T23:12:22.974Z,42.10
2019-03-29T23:14:53.876Z,41.07
2019-03-29T23:17:24.733Z,42.13
2019-03-29T23:19:55.638Z,42.37
2019-03-29T23:22:26.565Z,43.60
2019-03-29T23:24:57.423Z,41.23
2019-03-29T23:27:28.338Z,43.37
2019-03-29T23:29:58.287Z,44.90
2019-03-29T23:32:29.102Z,46.73
2019-03-29T23:34:59.986Z,44.60
2019-03-29T23:37:31.363Z,44.33
2019-03-29T23:40:02.615Z,45.13
2019-03-29T23:42:33.510Z,45.73
2019-03-29T23:45:04.778Z,45.50
2019-03-29T23:47:35.646Z,46.23
2019-03-29T23:50:06.877Z,46.93
2019-03-29T23:52:37.771Z,46.45
2019-03-29T23:55:08.778Z,45.33
2019-03-29T23:57:39.631Z,45.27
